Derwent, Ohio
Current Conditions -  °F | °C
As of 12:53 AM on Friday 28 Nov 2014 (Local Time) from KZZV Reporting Station
Overcast Overcast  
Wind Chill: 19°   Ceiling: 3300
Heat Index: 28°   Visibility: 10mi
Dew Point: 20°   Wind: 9mph
Humidity: 72%   Direction: 270°W
Pressure: 30.29"   Gusts: NA
Location:  39.92°N, 81.54°W
Report Text: KZZV 280553Z AUTO 27008KT 10SM FEW023 OVC033 M02/M07 A3029 RMK AO2 SNE08 SLP266 P0000 60003 T10221067 11006 21022 50004
Loading
Personal Weather Stations






























Interactive Weather Map New forecast layout! Learn more

10-Day Weather Forecast

Advertisements
Track Severe Weather on mobile